Avignon-Caumont Airport


Codes: LFMV/AVN
Name: Avignon-Caumont Airport
City: Avignon/Caumont
Country: France
Elevation: 124 ft.
Wikipedia:

Photos at Avignon-Caumont Airport


   Photos courtesy of SpottingLog. You can add your own sightings and photos by signing up for a free trial today.



No photos found.

Weather at Avignon-Caumont Airport


Time (UTC)DescriptionTempratureWindCloud coverageVisibilityPressureHumidity
21-Feb-2024 03:00Scattered Clouds7°C7 mph, N33%10000m1026hPa75%
21-Feb-2024 06:00Broken Clouds7°C2 mph, N67%10000m1025hPa75%
21-Feb-2024 09:00Overcast Clouds11°C2 mph, NE100%10000m1026hPa59%
21-Feb-2024 12:00Overcast Clouds15°C2 mph, S100%10000m1025hPa47%
21-Feb-2024 15:00Overcast Clouds16°C4 mph, S100%10000m1022hPa45%
21-Feb-2024 18:00Overcast Clouds12°C4 mph, SW100%10000m1022hPa65%
21-Feb-2024 21:00Overcast Clouds10°C0 mph, SW100%10000m1022hPa77%
22-Feb-2024 00:00Overcast Clouds11°C2 mph, SE100%10000m1020hPa76%
22-Feb-2024 03:00Light Rain10°C2 mph, E100%10000m1017hPa80%
22-Feb-2024 06:00Light Rain10°C4 mph, E100%10000m1016hPa82%
22-Feb-2024 09:00Overcast Clouds11°C2 mph, SE100%10000m1015hPa75%
22-Feb-2024 12:00Overcast Clouds14°C11 mph, SE100%10000m1012hPa68%
22-Feb-2024 15:00Light Rain15°C13 mph, SE100%10000m1008hPa75%
22-Feb-2024 18:00Light Rain13°C11 mph, SE100%10000m1007hPa79%
22-Feb-2024 21:00Light Rain13°C11 mph, SE100%10000m1005hPa81%
23-Feb-2024 00:00Light Rain10°C16 mph, N100%10000m1005hPa82%
23-Feb-2024 03:00Light Rain8°C13 mph, N100%10000m1004hPa73%
23-Feb-2024 06:00Overcast Clouds7°C11 mph, NW99%10000m1003hPa78%
23-Feb-2024 09:00Broken Clouds9°C9 mph, NW74%10000m1004hPa70%
23-Feb-2024 12:00Broken Clouds12°C11 mph, NW68%10000m1004hPa45%
23-Feb-2024 15:00Broken Clouds11°C16 mph, W59%10000m1003hPa52%
23-Feb-2024 18:00Broken Clouds8°C11 mph, W55%10000m1005hPa62%
23-Feb-2024 21:00Overcast Clouds7°C9 mph, SW98%10000m1006hPa67%
24-Feb-2024 00:00Overcast Clouds5°C4 mph, SW97%10000m1006hPa71%
24-Feb-2024 03:00Broken Clouds5°C4 mph, SE84%10000m1006hPa73%
24-Feb-2024 06:00Overcast Clouds4°C2 mph, SE90%10000m1005hPa76%
24-Feb-2024 09:00Scattered Clouds8°C2 mph, SE39%10000m1006hPa58%
24-Feb-2024 12:00Light Rain9°C2 mph, NW70%10000m1007hPa57%
24-Feb-2024 15:00Light Rain8°C4 mph, SW100%10000m1007hPa67%
24-Feb-2024 18:00Overcast Clouds6°C0 mph, SW98%10000m1009hPa80%
24-Feb-2024 21:00Broken Clouds5°C2 mph, SW66%10000m1011hPa81%
25-Feb-2024 00:00Scattered Clouds4°C2 mph, SW33%10000m1011hPa81%
25-Feb-2024 03:00Scattered Clouds4°C2 mph, NE47%10000m1011hPa83%
25-Feb-2024 06:00Scattered Clouds3°C2 mph, N46%10000m1011hPa86%
25-Feb-2024 09:00Scattered Clouds7°C2 mph, SW47%10000m1011hPa70%
25-Feb-2024 12:00Scattered Clouds11°C0 mph, S40%10000m1009hPa48%
25-Feb-2024 15:00Overcast Clouds12°C9 mph, S100%10000m1007hPa48%
25-Feb-2024 18:00Overcast Clouds9°C4 mph, SE100%10000m1007hPa63%
25-Feb-2024 21:00Overcast Clouds9°C7 mph, E100%10000m1007hPa64%
26-Feb-2024 00:00Overcast Clouds9°C9 mph, E100%10000m1005hPa61%